Time;durP1;ratioP1;P1;durP2;ratioP2;P2;SDS_P1;SDS_P2;PMS_P1;PMS_P2;Temp;Humidity;BMP_temperature;BMP_pressure;BME280_temperature;BME280_humidity;BME280_pressure;Samples;Min_cycle;Max_cycle;Signal;HPM_P1;HPM_P2
2022/07/28 00:02:17;;;;;;;7.88;1.38;;;;;;;-147.53;100.00;57128.34;10223823;28;20047;-74
2022/07/28 00:07:19;;;;;;;4.80;1.30;;;;;;;-147.53;100.00;57128.34;10234143;28;20506;-74
2022/07/28 00:12:21;;;;;;;10.10;1.75;;;;;;;-147.53;100.00;57128.34;10230712;28;20035;-74
2022/07/28 00:17:22;;;;;;;8.20;2.17;;;;;;;-147.53;100.00;57128.34;10234602;28;20075;-73
2022/07/28 00:22:24;;;;;;;2.70;1.38;;;;;;;-147.53;100.00;57128.34;10235068;28;20176;-73
2022/07/28 00:27:26;;;;;;;4.05;1.40;;;;;;;-147.53;100.00;57128.34;10227006;28;20475;-74
2022/07/28 00:32:27;;;;;;;3.92;1.58;;;;;;;-147.53;100.00;57128.34;10232064;28;20134;-74
2022/07/28 00:37:29;;;;;;;6.50;1.67;;;;;;;-147.53;100.00;57128.34;10233730;28;20044;-73
2022/07/28 00:42:30;;;;;;;5.53;1.55;;;;;;;-147.53;100.00;57128.34;10235021;28;20035;-74
2022/07/28 00:47:32;;;;;;;6.60;2.20;;;;;;;-147.53;100.00;57128.34;10230910;28;20055;-73
2022/07/28 00:52:34;;;;;;;5.53;1.60;;;;;;;-147.53;100.00;57128.34;10233894;28;20070;-74
2022/07/28 00:57:36;;;;;;;7.60;1.40;;;;;;;-147.53;100.00;57128.34;10233176;28;20173;-74
2022/07/28 01:02:38;;;;;;;6.65;1.50;;;;;;;-147.53;100.00;57128.34;10234319;28;20418;-74
2022/07/28 01:07:56;;;;;;;5.78;1.90;;;;;;;-147.53;100.00;57128.34;10228180;28;20142;-73
2022/07/28 01:13:09;;;;;;;2.70;1.00;;;;;;;-147.53;100.00;57128.34;10224788;28;20051;-74
2022/07/28 01:18:18;;;;;;;5.68;1.70;;;;;;;-147.53;100.00;57128.34;10233758;28;20122;-74
2022/07/28 01:23:32;;;;;;;5.53;1.77;;;;;;;-147.53;100.00;57128.34;10239990;28;20057;-74
2022/07/28 01:28:58;;;;;;;4.93;1.83;;;;;;;-147.53;100.00;57128.34;10233510;28;20043;-74
2022/07/28 01:34:05;;;;;;;5.20;1.80;;;;;;;-147.53;100.00;57128.34;10228663;28;20086;-73
2022/07/28 01:39:08;;;;;;;6.15;2.40;;;;;;;-147.53;100.00;57128.34;10240085;28;20055;-74
2022/07/28 01:44:17;;;;;;;6.97;1.70;;;;;;;-147.53;100.00;57128.34;10236838;28;20581;-74
2022/07/28 01:49:20;;;;;;;4.82;1.42;;;;;;;-147.53;100.00;57128.34;10236853;28;20589;-73
2022/07/28 01:54:27;;;;;;;5.20;1.65;;;;;;;-147.53;100.00;57128.34;10233797;28;20039;-73
2022/07/28 01:59:30;;;;;;;4.65;1.70;;;;;;;-147.53;100.00;57128.34;10241543;28;20047;-74
2022/07/28 02:04:36;;;;;;;5.53;1.63;;;;;;;-147.53;100.00;57128.34;10235121;28;20043;-74
2022/07/28 02:09:39;;;;;;;4.13;1.85;;;;;;;-147.53;100.00;57128.34;10228394;28;20051;-74
2022/07/28 02:14:42;;;;;;;4.07;1.55;;;;;;;-147.53;100.00;57128.34;10239777;28;20049;-74
2022/07/28 02:19:46;;;;;;;6.05;1.55;;;;;;;-147.53;100.00;57128.34;10239911;28;20065;-74
2022/07/28 02:24:48;;;;;;;8.55;1.70;;;;;;;-147.53;100.00;57128.34;10237572;28;20031;-73
2022/07/28 02:30:00;;;;;;;2.85;1.30;;;;;;;-147.53;100.00;57128.34;10238684;28;20051;-73
2022/07/28 02:35:07;;;;;;;4.00;1.80;;;;;;;-147.53;100.00;57128.34;10230308;28;20056;-74
2022/07/28 02:40:13;;;;;;;3.40;1.48;;;;;;;-147.53;100.00;57128.34;10238197;28;20506;-74
2022/07/28 02:45:20;;;;;;;4.95;1.65;;;;;;;-147.53;100.00;57128.34;10235810;28;20041;-73
2022/07/28 02:50:24;;;;;;;3.55;1.60;;;;;;;-147.53;100.00;57128.34;10230392;28;20047;-73
2022/07/28 02:55:28;;;;;;;5.85;1.83;;;;;;;-147.53;100.00;57128.34;10237866;28;20042;-73
2022/07/28 03:00:30;;;;;;;3.92;1.90;;;;;;;-147.53;100.00;57128.34;10238323;28;20128;-73
2022/07/28 03:05:32;;;;;;;2.92;1.73;;;;;;;-147.53;100.00;57128.34;10224724;28;20036;-73
2022/07/28 03:10:33;;;;;;;5.28;2.05;;;;;;;-147.53;100.00;57128.34;10236284;28;20047;-73
2022/07/28 03:15:36;;;;;;;4.97;1.85;;;;;;;-147.53;100.00;57128.34;10234878;28;20126;-74
2022/07/28 03:20:38;;;;;;;6.20;2.13;;;;;;;-147.53;100.00;57128.34;10236262;28;20043;-73
2022/07/28 03:25:47;;;;;;;6.53;2.05;;;;;;;-147.53;100.00;57128.34;10236447;28;20054;-74
2022/07/28 03:30:59;;;;;;;4.70;1.80;;;;;;;-147.53;100.00;57128.34;10233010;28;20039;-74
2022/07/28 03:36:07;;;;;;;5.47;1.75;;;;;;;-147.53;100.00;57128.34;10230928;28;20428;-74
2022/07/28 03:41:10;;;;;;;5.75;2.33;;;;;;;-147.53;100.00;57128.34;10236967;28;20044;-73
2022/07/28 03:46:11;;;;;;;5.15;2.35;;;;;;;-147.53;100.00;57128.34;10235437;28;20118;-74
2022/07/28 03:51:14;;;;;;;5.70;2.35;;;;;;;-147.53;100.00;57128.34;10234513;28;20039;-73
2022/07/28 03:56:15;;;;;;;8.48;2.75;;;;;;;-147.53;100.00;57128.34;10235543;28;20035;-73
2022/07/28 04:01:17;;;;;;;4.47;2.08;;;;;;;-147.53;100.00;57128.34;10235878;28;20067;-73
2022/07/28 04:06:18;;;;;;;5.78;2.15;;;;;;;-147.53;100.00;57128.34;10230183;28;20086;-73
2022/07/28 04:11:20;;;;;;;7.03;2.75;;;;;;;-147.53;100.00;57128.34;10235712;28;20129;-73
2022/07/28 04:16:22;;;;;;;4.10;2.00;;;;;;;-147.53;100.00;57128.34;10235773;28;20035;-73
2022/07/28 04:21:24;;;;;;;5.43;2.40;;;;;;;-147.53;100.00;57128.34;10236223;28;20047;-73
2022/07/28 04:26:26;;;;;;;7.70;2.25;;;;;;;-147.53;100.00;57128.34;10230453;28;20035;-74
2022/07/28 04:31:27;;;;;;;8.35;2.80;;;;;;;-147.53;100.00;57128.34;10230106;28;20043;-74
2022/07/28 04:36:29;;;;;;;8.45;2.75;;;;;;;-147.53;100.00;57128.34;10234212;28;20047;-73
2022/07/28 04:41:31;;;;;;;8.82;2.88;;;;;;;-147.53;100.00;57128.34;10229189;28;20055;-73
2022/07/28 04:46:34;;;;;;;11.68;2.92;;;;;;;-147.53;100.00;57128.34;10228573;28;20035;-73
2022/07/28 04:51:36;;;;;;;5.60;2.90;;;;;;;-147.53;100.00;57128.34;10230905;28;20043;-74
2022/07/28 04:56:37;;;;;;;6.55;2.97;;;;;;;-147.53;100.00;57128.34;10238930;28;20044;-73
2022/07/28 05:01:39;;;;;;;9.32;3.30;;;;;;;-147.53;100.00;57128.34;10243368;28;20039;-73
2022/07/28 05:06:41;;;;;;;6.95;3.35;;;;;;;-147.53;100.00;57128.34;10242225;28;20086;-74
2022/07/28 05:11:43;;;;;;;8.27;3.60;;;;;;;-147.53;100.00;57128.34;10241698;28;20043;-75
2022/07/28 05:16:44;;;;;;;7.25;3.10;;;;;;;-147.53;100.00;57128.34;10240715;28;20065;-74
2022/07/28 05:21:46;;;;;;;9.82;3.45;;;;;;;-147.53;100.00;57128.34;10236020;28;20156;-74
2022/07/28 05:26:48;;;;;;;7.53;3.40;;;;;;;-147.53;100.00;57128.34;10241186;28;20042;-74
2022/07/28 05:31:49;;;;;;;8.10;3.20;;;;;;;-147.53;100.00;57128.34;10241667;28;20043;-74
2022/07/28 05:36:51;;;;;;;7.32;3.42;;;;;;;-147.53;100.00;57128.34;10239675;28;20071;-74
2022/07/28 05:41:52;;;;;;;12.45;3.67;;;;;;;-147.53;100.00;57128.34;10234649;28;20043;-74
2022/07/28 05:46:54;;;;;;;10.13;3.40;;;;;;;-147.53;100.00;57128.34;10240238;28;20046;-73
2022/07/28 05:51:55;;;;;;;8.60;3.85;;;;;;;-147.53;100.00;57128.34;10240934;28;20047;-74
2022/07/28 05:56:57;;;;;;;9.82;3.75;;;;;;;-147.53;100.00;57128.34;10229710;28;20043;-74
2022/07/28 06:02:00;;;;;;;8.48;3.15;;;;;;;-147.53;100.00;57128.34;10234400;28;20073;-73
2022/07/28 06:07:02;;;;;;;15.70;5.65;;;;;;;-147.53;100.00;57128.34;10235977;28;20047;-73
2022/07/28 06:12:03;;;;;;;7.55;3.38;;;;;;;-147.53;100.00;57128.34;10239435;28;21000;-73
2022/07/28 06:17:05;;;;;;;5.90;2.55;;;;;;;-147.53;100.00;57128.34;10237965;28;20526;-72
2022/07/28 06:22:07;;;;;;;8.70;3.28;;;;;;;-147.53;100.00;57128.34;10229000;28;20044;-73
2022/07/28 06:27:08;;;;;;;6.15;3.00;;;;;;;-147.53;100.00;57128.34;10236537;28;20403;-73
2022/07/28 06:32:10;;;;;;;5.68;2.25;;;;;;;-147.53;100.00;57128.34;10239161;28;20046;-73
2022/07/28 06:37:12;;;;;;;5.95;1.95;;;;;;;-147.53;100.00;57128.34;10237525;28;20126;-72
2022/07/28 06:42:13;;;;;;;6.10;2.50;;;;;;;-147.53;100.00;57128.34;10238868;28;20422;-74
2022/07/28 06:47:15;;;;;;;4.72;1.60;;;;;;;-147.53;100.00;57128.34;10236975;28;20053;-73
2022/07/28 06:52:20;;;;;;;4.43;1.63;;;;;;;-147.53;100.00;57128.34;10237363;28;20085;-72
2022/07/28 06:57:22;;;;;;;6.60;1.80;;;;;;;-147.53;100.00;57128.34;10232888;28;20146;-73
2022/07/28 07:02:40;;;;;;;7.95;1.77;;;;;;;-147.53;100.00;57128.34;10228872;28;20122;-73
2022/07/28 07:07:42;;;;;;;6.28;1.20;;;;;;;-147.53;100.00;57128.34;10236761;28;20046;-74
2022/07/28 07:12:44;;;;;;;5.50;1.67;;;;;;;-147.53;100.00;57128.34;10235665;28;20156;-73
2022/07/28 07:17:46;;;;;;;3.33;1.25;;;;;;;-147.53;100.00;57128.34;10232649;28;20063;-73
2022/07/28 07:22:47;;;;;;;5.10;1.63;;;;;;;-147.53;100.00;57128.34;10227127;28;20047;-73
2022/07/28 07:27:49;;;;;;;4.93;0.90;;;;;;;-147.53;100.00;57128.34;10233258;28;20130;-74
2022/07/28 07:32:50;;;;;;;5.40;1.17;;;;;;;-147.53;100.00;57128.34;10230173;28;20043;-73
2022/07/28 07:37:52;;;;;;;3.90;1.10;;;;;;;-147.53;100.00;57128.34;10225799;28;20047;-73
2022/07/28 07:42:54;;;;;;;2.30;0.90;;;;;;;-147.53;100.00;57128.34;10226298;28;20043;-73
2022/07/28 07:47:55;;;;;;;3.97;0.98;;;;;;;-147.53;100.00;57128.34;10230749;28;20057;-73
2022/07/28 07:52:57;;;;;;;6.18;0.80;;;;;;;-147.53;100.00;57128.34;10235599;28;20051;-73
2022/07/28 07:57:58;;;;;;;1.80;0.80;;;;;;;-147.53;100.00;57128.34;10232878;28;20040;-73
2022/07/28 08:03:00;;;;;;;6.22;1.00;;;;;;;-147.53;100.00;57128.34;10230966;28;20134;-72
2022/07/28 08:08:03;;;;;;;3.38;0.85;;;;;;;-147.53;100.00;57128.34;10234189;28;20054;-73
2022/07/28 08:13:06;;;;;;;4.57;1.20;;;;;;;-147.53;100.00;57128.34;10229073;28;20047;-73
2022/07/28 08:18:08;;;;;;;4.13;1.05;;;;;;;-147.53;100.00;57128.34;10226548;28;20043;-74
2022/07/28 08:23:09;;;;;;;3.58;1.10;;;;;;;-147.53;100.00;57128.34;10225188;28;20043;-73
2022/07/28 08:28:11;;;;;;;2.85;1.00;;;;;;;-147.53;100.00;57128.34;10234538;28;20049;-73
2022/07/28 08:33:13;;;;;;;9.50;1.20;;;;;;;-147.53;100.00;57128.34;10227988;28;20445;-73
2022/07/28 08:38:15;;;;;;;3.10;1.23;;;;;;;-147.53;100.00;57128.34;10230513;28;20069;-74
2022/07/28 08:43:33;;;;;;;3.13;0.73;;;;;;;-147.53;100.00;57128.34;10222363;28;20055;-73
2022/07/28 08:48:37;;;;;;;2.30;0.95;;;;;;;-147.53;100.00;57128.34;10227324;28;20549;-73
2022/07/28 08:53:39;;;;;;;2.33;0.90;;;;;;;-147.53;100.00;57128.34;10232503;28;20434;-73
2022/07/28 08:58:42;;;;;;;4.75;1.30;;;;;;;-147.53;100.00;57128.34;10226475;28;20138;-73
2022/07/28 09:03:43;;;;;;;3.85;1.00;;;;;;;-147.53;100.00;57128.34;10219836;28;20135;-72
2022/07/28 09:08:45;;;;;;;2.30;0.80;;;;;;;-147.53;100.00;57128.34;10218552;28;20051;-74
2022/07/28 09:13:47;;;;;;;4.18;0.93;;;;;;;-147.53;100.00;57128.34;10222799;28;20053;-73
2022/07/28 09:18:54;;;;;;;2.72;1.27;;;;;;;-147.53;100.00;57128.34;10232965;28;20047;-72
2022/07/28 09:23:55;;;;;;;2.45;1.00;;;;;;;-147.53;100.00;57128.34;10222795;28;20043;-72
2022/07/28 09:28:57;;;;;;;4.60;1.23;;;;;;;-147.53;100.00;57128.34;10231785;28;20458;-71
2022/07/28 09:34:01;;;;;;;3.50;0.90;;;;;;;-147.53;100.00;57128.34;10226150;28;20095;-72
2022/07/28 09:39:03;;;;;;;4.00;1.00;;;;;;;-147.53;100.00;57128.34;10225274;28;20122;-72
2022/07/28 09:44:16;;;;;;;5.15;1.13;;;;;;;-147.53;100.00;57128.34;10197825;28;20047;-72
2022/07/28 09:49:18;;;;;;;5.50;1.05;;;;;;;-147.53;100.00;57128.34;10205634;28;20079;-72
2022/07/28 09:54:26;;;;;;;3.65;0.82;;;;;;;-147.53;100.00;57128.34;10206092;28;20656;-72
2022/07/28 09:59:40;;;;;;;3.83;0.90;;;;;;;-147.53;100.00;57128.34;10198283;28;20040;-72
2022/07/28 10:04:43;;;;;;;3.55;0.85;;;;;;;-147.53;100.00;57128.34;10211591;28;20054;-73
2022/07/28 10:10:08;;;;;;;1.50;0.60;;;;;;;-147.53;100.00;57128.34;10218266;28;20055;-72
2022/07/28 10:20:33;;;;;;;2.92;0.80;;;;;;;-147.53;100.00;57128.34;10213037;28;20047;-72
2022/07/28 10:25:38;;;;;;;4.95;0.85;;;;;;;-147.53;100.00;57128.34;10203342;28;20049;-72
2022/07/28 10:30:40;;;;;;;4.95;1.10;;;;;;;-147.53;100.00;57128.34;10200512;28;20047;-72
2022/07/28 10:35:45;;;;;;;1.70;0.88;;;;;;;-147.53;100.00;57128.34;10215722;28;20044;-72
2022/07/28 10:40:59;;;;;;;5.07;1.02;;;;;;;-147.53;100.00;57128.34;10209584;28;20110;-73
2022/07/28 10:46:03;;;;;;;5.82;0.90;;;;;;;-147.53;100.00;57128.34;10218440;28;20159;-73
2022/07/28 10:51:09;;;;;;;2.60;0.77;;;;;;;-147.53;100.00;57128.34;10209697;28;20318;-73
2022/07/28 10:56:16;;;;;;;3.90;0.90;;;;;;;-147.53;100.00;57128.34;10208794;28;20123;-73
2022/07/28 11:01:37;;;;;;;6.27;1.20;;;;;;;-147.53;100.00;57128.34;10208824;28;20050;-73
2022/07/28 11:07:09;;;;;;;12.60;2.67;;;;;;;-147.53;100.00;57128.34;10227784;28;20046;-72
2022/07/28 11:12:14;;;;;;;10.70;1.58;;;;;;;-147.53;100.00;57128.34;10217340;28;20051;-73
2022/07/28 11:17:18;;;;;;;4.57;1.10;;;;;;;-147.53;100.00;57128.34;10218824;28;20599;-72
2022/07/28 11:22:29;;;;;;;7.65;1.13;;;;;;;-147.53;100.00;57128.34;10200885;28;20083;-73
2022/07/28 11:27:39;;;;;;;4.22;1.15;;;;;;;-147.53;100.00;57128.34;10209932;28;20036;-73
2022/07/28 11:32:49;;;;;;;4.15;0.95;;;;;;;-147.53;100.00;57128.34;10227491;28;20052;-73
2022/07/28 11:38:00;;;;;;;1.90;0.90;;;;;;;-147.53;100.00;57128.34;10230740;28;20035;-72
2022/07/28 11:43:20;;;;;;;4.30;0.80;;;;;;;-147.53;100.00;57128.34;10225465;28;20411;-72
2022/07/28 11:48:29;;;;;;;26.38;2.90;;;;;;;-147.53;100.00;57128.34;10235554;28;20057;-73
2022/07/28 11:53:35;;;;;;;1.75;0.70;;;;;;;-147.53;100.00;57128.34;10219142;28;20122;-74
2022/07/28 11:58:38;;;;;;;8.50;0.98;;;;;;;-147.53;100.00;57128.34;10224021;28;20050;-73
2022/07/28 12:03:41;;;;;;;3.13;0.93;;;;;;;-147.53;100.00;57128.34;10217927;28;20146;-73
2022/07/28 12:08:55;;;;;;;3.60;1.20;;;;;;;-147.53;100.00;57128.34;10217426;28;20538;-73
2022/07/28 12:14:15;;;;;;;3.10;0.98;;;;;;;-147.53;100.00;57128.34;10201120;28;20216;-73
2022/07/28 12:19:18;;;;;;;5.70;1.05;;;;;;;-147.53;100.00;57128.34;10216374;28;20058;-73
2022/07/28 12:24:29;;;;;;;6.53;1.30;;;;;;;-147.53;100.00;57128.34;10202485;28;20130;-73
2022/07/28 12:29:31;;;;;;;5.43;1.23;;;;;;;-147.53;100.00;57128.34;10221706;28;20150;-73
2022/07/28 12:34:38;;;;;;;3.00;0.90;;;;;;;-147.53;100.00;57128.34;10226637;28;20443;-72
2022/07/28 12:39:43;;;;;;;3.55;0.88;;;;;;;-147.53;100.00;57128.34;10213717;28;20051;-73
2022/07/28 12:44:47;;;;;;;3.35;1.10;;;;;;;-147.53;100.00;57128.34;10235863;28;20191;-73
2022/07/28 12:50:07;;;;;;;2.33;0.95;;;;;;;-147.53;100.00;57128.34;10236350;28;20086;-73
2022/07/28 12:55:25;;;;;;;4.95;1.10;;;;;;;-147.53;100.00;57128.34;10232606;28;20049;-73
2022/07/28 13:00:30;;;;;;;3.72;1.25;;;;;;;-147.53;100.00;57128.34;10228430;28;20051;-72
2022/07/28 13:10:56;;;;;;;3.97;1.15;;;;;;;-147.53;100.00;57128.34;10226685;28;20043;-73
2022/07/28 13:16:13;;;;;;;5.38;1.05;;;;;;;-147.53;100.00;57128.34;10233743;28;20399;-73
2022/07/28 13:21:15;;;;;;;7.35;1.40;;;;;;;-147.53;100.00;57128.34;10226633;28;20075;-71
2022/07/28 13:26:17;;;;;;;5.57;1.70;;;;;;;-147.53;100.00;57128.34;10234996;28;20047;-72
2022/07/28 13:31:18;;;;;;;22.52;3.65;;;;;;;-147.53;100.00;57128.34;10235012;28;20115;-72
2022/07/28 13:36:20;;;;;;;3.35;1.02;;;;;;;-147.53;100.00;57128.34;10239973;28;20082;-72
2022/07/28 13:41:21;;;;;;;4.50;1.15;;;;;;;-147.53;100.00;57128.34;10237988;28;20125;-72
2022/07/28 13:46:24;;;;;;;4.50;1.20;;;;;;;-147.53;100.00;57128.34;10238545;28;20040;-73
2022/07/28 13:51:29;;;;;;;2.38;0.80;;;;;;;-147.53;100.00;57128.34;10232746;28;20884;-73
2022/07/28 13:56:35;;;;;;;2.08;1.20;;;;;;;-147.53;100.00;57128.34;10229315;28;20047;-73
2022/07/28 14:01:36;;;;;;;5.75;1.00;;;;;;;-147.53;100.00;57128.34;10238458;28;20213;-74
2022/07/28 14:06:38;;;;;;;3.45;1.27;;;;;;;-147.53;100.00;57128.34;10240834;28;20078;-74
2022/07/28 14:11:40;;;;;;;8.50;1.30;;;;;;;-147.53;100.00;57128.34;10236754;28;20047;-74
2022/07/28 14:16:53;;;;;;;5.68;1.20;;;;;;;-147.53;100.00;57128.34;10234571;28;20053;-74
2022/07/28 14:21:56;;;;;;;11.75;4.65;;;;;;;-147.53;100.00;57128.34;10232103;28;20803;-74
2022/07/28 14:26:58;;;;;;;5.18;1.30;;;;;;;-147.53;100.00;57128.34;10229629;28;20118;-73
2022/07/28 14:32:00;;;;;;;4.75;0.90;;;;;;;-147.53;100.00;57128.34;10240476;28;20675;-74
2022/07/28 14:37:02;;;;;;;2.42;0.73;;;;;;;-147.53;100.00;57128.34;10231894;28;20079;-75
2022/07/28 14:42:07;;;;;;;4.35;0.95;;;;;;;-147.53;100.00;57128.34;10233846;28;20047;-74
2022/07/28 14:47:08;;;;;;;21.35;7.40;;;;;;;-147.53;100.00;57128.34;10238248;28;20043;-73
2022/07/28 14:52:10;;;;;;;8.98;1.80;;;;;;;-147.53;100.00;57128.34;10239324;28;20074;-75
2022/07/28 14:57:13;;;;;;;4.90;1.45;;;;;;;-147.53;100.00;57128.34;10237493;28;20047;-73
2022/07/28 15:02:15;;;;;;;3.60;1.17;;;;;;;-147.53;100.00;57128.34;10234752;28;20071;-74
2022/07/28 15:07:16;;;;;;;5.18;1.15;;;;;;;-147.53;100.00;57128.34;10226479;28;20047;-73
2022/07/28 15:12:18;;;;;;;4.45;1.10;;;;;;;-147.53;100.00;57128.34;10222453;28;20135;-72
2022/07/28 15:17:20;;;;;;;2.03;0.80;;;;;;;-147.53;100.00;57128.34;10235423;28;20122;-73
2022/07/28 15:22:22;;;;;;;4.05;0.95;;;;;;;-147.53;100.00;57128.34;10237429;28;20074;-73
2022/07/28 15:27:27;;;;;;;3.03;1.08;;;;;;;-147.53;100.00;57128.34;10236241;28;20655;-73
2022/07/28 15:32:34;;;;;;;5.80;1.08;;;;;;;-147.53;100.00;57128.34;10230999;28;20083;-73
2022/07/28 15:37:54;;;;;;;6.85;1.85;;;;;;;-147.53;100.00;57128.34;10230237;28;20050;-73
2022/07/28 15:42:56;;;;;;;5.30;1.70;;;;;;;-147.53;100.00;57128.34;10231347;28;20134;-73
2022/07/28 15:47:57;;;;;;;6.65;1.55;;;;;;;-147.53;100.00;57128.34;10231578;28;20428;-74
2022/07/28 15:52:59;;;;;;;4.20;1.15;;;;;;;-147.53;100.00;57128.34;10236521;28;20055;-74
2022/07/28 15:58:01;;;;;;;3.22;0.90;;;;;;;-147.53;100.00;57128.34;10228709;28;20074;-74
2022/07/28 16:03:03;;;;;;;5.10;1.20;;;;;;;-147.53;100.00;57128.34;10236258;28;20472;-74
2022/07/28 16:08:05;;;;;;;1.50;0.85;;;;;;;-147.53;100.00;57128.34;10228329;28;20078;-74
2022/07/28 16:13:07;;;;;;;5.03;1.20;;;;;;;-147.53;100.00;57128.34;10236159;28;20122;-74
2022/07/28 16:18:09;;;;;;;4.22;1.00;;;;;;;-147.53;100.00;57128.34;10234729;28;20054;-74
2022/07/28 16:23:11;;;;;;;8.02;1.30;;;;;;;-147.53;100.00;57128.34;10223220;28;20040;-75
2022/07/28 16:28:13;;;;;;;4.60;1.70;;;;;;;-147.53;100.00;57128.34;10231099;28;20063;-75
2022/07/28 16:33:15;;;;;;;3.15;1.17;;;;;;;-147.53;100.00;57128.34;10230058;28;20077;-75
2022/07/28 16:38:18;;;;;;;6.30;1.10;;;;;;;-147.53;100.00;57128.34;10235162;28;20059;-72
2022/07/28 16:43:19;;;;;;;7.95;2.28;;;;;;;-147.53;100.00;57128.34;10233415;28;20046;-74
2022/07/28 16:48:21;;;;;;;4.90;1.52;;;;;;;-147.53;100.00;57128.34;10234224;28;20053;-73
2022/07/28 16:53:22;;;;;;;4.00;1.10;;;;;;;-147.53;100.00;57128.34;10238785;28;20427;-75
2022/07/28 16:58:24;;;;;;;2.95;1.35;;;;;;;-147.53;100.00;57128.34;10237466;28;20134;-76
2022/07/28 17:03:26;;;;;;;5.07;1.05;;;;;;;-147.53;100.00;57128.34;10237174;28;20663;-74
2022/07/28 17:08:28;;;;;;;5.00;1.00;;;;;;;-147.53;100.00;57128.34;10235344;28;20150;-74
2022/07/28 17:13:29;;;;;;;6.30;0.90;;;;;;;-147.53;100.00;57128.34;10231644;28;20738;-73
2022/07/28 17:18:33;;;;;;;3.25;1.25;;;;;;;-147.53;100.00;57128.34;10236108;28;20047;-74
2022/07/28 17:23:34;;;;;;;4.10;0.93;;;;;;;-147.53;100.00;57128.34;10234557;28;20144;-74
2022/07/28 17:28:36;;;;;;;9.02;1.20;;;;;;;-147.53;100.00;57128.34;10242766;28;20051;-74
2022/07/28 17:33:38;;;;;;;3.08;1.17;;;;;;;-147.53;100.00;57128.34;10240858;28;20039;-75
2022/07/28 17:38:41;;;;;;;5.55;0.93;;;;;;;-147.53;100.00;57128.34;10229749;28;20411;-76
2022/07/28 17:43:43;;;;;;;5.00;1.17;;;;;;;-147.53;100.00;57128.34;10239527;28;20582;-74
2022/07/28 17:48:46;;;;;;;2.97;1.00;;;;;;;-147.53;100.00;57128.34;10238230;28;20047;-74
2022/07/28 17:53:48;;;;;;;4.07;1.00;;;;;;;-147.53;100.00;57128.34;10230310;28;20043;-75
2022/07/28 17:58:52;;;;;;;4.05;1.20;;;;;;;-147.53;100.00;57128.34;10240245;28;20043;-74
2022/07/28 18:03:54;;;;;;;4.25;1.15;;;;;;;-147.53;100.00;57128.34;10238134;28;20039;-75
2022/07/28 18:09:03;;;;;;;4.97;0.80;;;;;;;-147.53;100.00;57128.34;10223917;28;20047;-74
2022/07/28 18:14:07;;;;;;;2.13;0.90;;;;;;;-147.53;100.00;57128.34;10237539;28;20467;-76
2022/07/28 18:19:08;;;;;;;3.75;0.90;;;;;;;-147.53;100.00;57128.34;10238916;28;20051;-74
2022/07/28 18:24:10;;;;;;;3.22;1.10;;;;;;;-147.53;100.00;57128.34;10237945;28;20061;-73
2022/07/28 18:29:13;;;;;;;4.32;0.90;;;;;;;-147.53;100.00;57128.34;10235349;28;20134;-75
2022/07/28 18:34:14;;;;;;;3.70;1.10;;;;;;;-147.53;100.00;57128.34;10232167;28;20058;-76
2022/07/28 18:39:17;;;;;;;4.22;1.23;;;;;;;-147.53;100.00;57128.34;10226640;28;20054;-74
2022/07/28 18:44:18;;;;;;;4.72;1.23;;;;;;;-147.53;100.00;57128.34;10236382;28;20051;-75
2022/07/28 18:49:21;;;;;;;8.73;1.63;;;;;;;-147.53;100.00;57128.34;10228413;28;20051;-74
2022/07/28 18:54:23;;;;;;;7.18;1.50;;;;;;;-147.53;100.00;57128.34;10229489;28;20106;-74
2022/07/28 18:59:28;;;;;;;4.10;1.60;;;;;;;-147.53;100.00;57128.34;10237346;28;20074;-74
2022/07/28 19:04:30;;;;;;;3.28;1.17;;;;;;;-147.53;100.00;57128.34;10237201;28;20758;-74
2022/07/28 19:09:31;;;;;;;7.35;2.20;;;;;;;-147.53;100.00;57128.34;10226211;28;20523;-76
2022/07/28 19:14:39;;;;;;;6.35;1.40;;;;;;;-147.53;100.00;57128.34;10230545;28;20047;-75
2022/07/28 19:19:42;;;;;;;5.47;1.15;;;;;;;-147.53;100.00;57128.34;10235219;28;20055;-75
2022/07/28 19:24:43;;;;;;;4.07;1.42;;;;;;;-147.53;100.00;57128.34;10225768;28;21405;-75
2022/07/28 19:29:45;;;;;;;3.55;1.10;;;;;;;-147.53;100.00;57128.34;10236093;28;20043;-75
2022/07/28 19:34:47;;;;;;;5.95;1.50;;;;;;;-147.53;100.00;57128.34;10230303;28;20047;-75
2022/07/28 19:39:48;;;;;;;7.63;1.83;;;;;;;-147.53;100.00;57128.34;10233371;28;20074;-75
2022/07/28 19:44:50;;;;;;;8.45;2.08;;;;;;;-147.53;100.00;57128.34;10233734;28;20765;-76
2022/07/28 19:49:56;;;;;;;5.00;1.55;;;;;;;-147.53;100.00;57128.34;10230573;28;20475;-75
2022/07/28 19:54:58;;;;;;;3.92;1.63;;;;;;;-147.53;100.00;57128.34;10234268;28;20050;-74
2022/07/28 20:00:01;;;;;;;9.18;1.90;;;;;;;-147.53;100.00;57128.34;10236860;28;20078;-75
2022/07/28 20:05:12;;;;;;;5.47;1.60;;;;;;;-147.53;100.00;57128.34;10234985;28;20643;-76
2022/07/28 20:10:14;;;;;;;3.88;1.50;;;;;;;-147.53;100.00;57128.34;10236384;28;20134;-74
2022/07/28 20:15:15;;;;;;;7.40;1.65;;;;;;;-147.53;100.00;57128.34;10227391;28;20057;-74
2022/07/28 20:20:17;;;;;;;8.43;1.92;;;;;;;-147.53;100.00;57128.34;10232039;28;20047;-75
2022/07/28 20:25:20;;;;;;;6.25;2.08;;;;;;;-147.53;100.00;57128.34;10233840;28;20043;-75
2022/07/28 20:30:22;;;;;;;6.65;2.03;;;;;;;-147.53;100.00;57128.34;10234561;28;20097;-74
2022/07/28 20:35:24;;;;;;;6.82;1.80;;;;;;;-147.53;100.00;57128.34;10234201;28;20094;-75
2022/07/28 20:40:26;;;;;;;5.13;1.58;;;;;;;-147.53;100.00;57128.34;10229568;28;20437;-75
2022/07/28 20:45:27;;;;;;;7.15;1.63;;;;;;;-147.53;100.00;57128.34;10227628;28;20665;-76
2022/07/28 20:50:29;;;;;;;4.93;1.70;;;;;;;-147.53;100.00;57128.34;10224874;28;20050;-75
2022/07/28 20:55:31;;;;;;;9.60;2.25;;;;;;;-147.53;100.00;57128.34;10228927;28;20058;-75
2022/07/28 21:00:32;;;;;;;7.05;1.85;;;;;;;-147.53;100.00;57128.34;10235658;28;20047;-75
2022/07/28 21:05:34;;;;;;;8.55;1.70;;;;;;;-147.53;100.00;57128.34;10233537;28;20499;-76
2022/07/28 21:10:37;;;;;;;7.97;1.77;;;;;;;-147.53;100.00;57128.34;10232619;28;20039;-75
2022/07/28 21:15:39;;;;;;;7.32;1.95;;;;;;;-147.53;100.00;57128.34;10233245;28;20123;-75
2022/07/28 21:20:41;;;;;;;6.60;2.03;;;;;;;-147.53;100.00;57128.34;10235207;28;20053;-75
2022/07/28 21:25:44;;;;;;;10.35;2.40;;;;;;;-147.53;100.00;57128.34;10232854;28;20041;-74
2022/07/28 21:30:45;;;;;;;6.32;1.75;;;;;;;-147.53;100.00;57128.34;10231697;28;20661;-75
2022/07/28 21:35:47;;;;;;;4.93;1.80;;;;;;;-147.53;100.00;57128.34;10231728;28;20059;-74
2022/07/28 21:40:49;;;;;;;4.88;1.50;;;;;;;-147.53;100.00;57128.34;10239348;28;20047;-75
2022/07/28 21:45:51;;;;;;;4.25;1.50;;;;;;;-147.53;100.00;57128.34;10239100;28;20075;-75
2022/07/28 21:50:52;;;;;;;4.88;2.03;;;;;;;-147.53;100.00;57128.34;10239854;28;20134;-75
2022/07/28 21:55:55;;;;;;;8.23;1.88;;;;;;;-147.53;100.00;57128.34;10234090;28;20051;-74
2022/07/28 22:00:57;;;;;;;5.75;1.92;;;;;;;-147.53;100.00;57128.34;10238791;28;20048;-76
2022/07/28 22:06:03;;;;;;;5.65;1.92;;;;;;;-147.53;100.00;57128.34;10235852;28;20051;-75
2022/07/28 22:11:05;;;;;;;6.45;2.30;;;;;;;-147.53;100.00;57128.34;10238461;28;20052;-76
2022/07/28 22:16:07;;;;;;;5.38;1.90;;;;;;;-147.53;100.00;57128.34;10235894;28;20047;-75
2022/07/28 22:21:09;;;;;;;5.85;2.08;;;;;;;-147.53;100.00;57128.34;10238901;28;20058;-75
2022/07/28 22:26:10;;;;;;;4.88;1.98;;;;;;;-147.53;100.00;57128.34;10239796;28;20043;-76
2022/07/28 22:31:12;;;;;;;5.53;1.80;;;;;;;-147.53;100.00;57128.34;10237626;28;20047;-75
2022/07/28 22:36:13;;;;;;;5.32;2.00;;;;;;;-147.53;100.00;57128.34;10237030;28;20110;-74
2022/07/28 22:41:15;;;;;;;5.03;1.98;;;;;;;-147.53;100.00;57128.34;10238055;28;20057;-75
2022/07/28 22:46:17;;;;;;;6.55;1.88;;;;;;;-147.53;100.00;57128.34;10239422;28;20055;-75
2022/07/28 22:51:18;;;;;;;6.03;2.08;;;;;;;-147.53;100.00;57128.34;10240005;28;20431;-76
2022/07/28 22:56:20;;;;;;;4.65;1.80;;;;;;;-147.53;100.00;57128.34;10236469;28;20423;-72